Time;durP1;ratioP1;P1;durP2;ratioP2;P2;SDS_P1;SDS_P2;PMS_P1;PMS_P2;Temp;Humidity;BMP_temperature;BMP_pressure;BME280_temperature;BME280_humidity;BME280_pressure;Samples;Min_cycle;Max_cycle;Signal;HPM_P1;HPM_P2
2022/07/01 00:00:10;;;;;;;1.50;1.20;;;18.20;1.40;;;19.09;100.00;95230.84;647214;212;31533;-76
2022/07/01 00:02:52;;;;;;;1.70;1.60;;;18.10;1.40;;;19.03;100.00;95237.80;646102;216;31777;-76
2022/07/01 00:05:33;;;;;;;3.10;1.90;;;18.00;1.40;;;19.06;100.00;95241.17;647568;212;31643;-75
2022/07/01 00:08:18;;;;;;;2.20;1.67;;;18.00;1.40;;;19.04;100.00;95231.86;646929;216;31533;-76
2022/07/01 00:11:00;;;;;;;2.10;1.60;;;17.90;1.40;;;19.07;100.00;95222.78;646572;212;31558;-75
2022/07/01 00:13:41;;;;;;;0.80;0.80;;;18.00;1.40;;;19.13;100.00;95236.06;646343;216;31585;-75
2022/07/01 00:16:23;;;;;;;1.33;1.20;;;18.10;1.40;;;19.06;100.00;95242.32;646289;216;31472;-75
2022/07/01 00:19:05;;;;;;;1.00;0.90;;;17.90;1.40;;;18.94;100.00;95256.11;646856;216;31511;-75
2022/07/01 00:21:47;;;;;;;1.17;0.90;;;17.80;1.40;;;18.91;100.00;95272.41;646833;212;31520;-75
2022/07/01 00:24:28;;;;;;;1.20;1.10;;;17.90;1.40;;;18.94;100.00;95284.92;645396;216;32433;-76
2022/07/01 00:27:10;;;;;;;1.90;1.10;;;17.90;1.40;;;18.84;100.00;95288.30;646693;216;31469;-75
2022/07/01 00:29:52;;;;;;;1.60;0.90;;;17.80;1.40;;;18.73;100.00;95289.81;647451;216;31641;-75
2022/07/01 00:32:33;;;;;;;2.05;0.90;;;17.70;1.40;;;18.82;100.00;95287.39;647785;212;31626;-75
2022/07/01 00:35:52;;;;;;;1.10;0.55;;;17.80;1.40;;;18.84;100.00;95282.52;647281;216;32079;-75
2022/07/01 00:38:32;;;;;;;0.90;0.70;;;17.80;1.40;;;18.81;100.00;95285.25;647010;216;31947;-75
2022/07/01 00:41:14;;;;;;;1.05;0.60;;;17.80;1.40;;;18.83;100.00;95289.20;645849;216;31611;-76
2022/07/01 00:43:59;;;;;;;2.60;0.62;;;17.80;1.40;;;18.82;100.00;95280.88;646740;216;31494;-76
2022/07/01 00:46:40;;;;;;;0.90;0.50;;;17.80;1.40;;;18.85;100.00;95273.74;647056;216;31474;-75
2022/07/01 00:49:22;;;;;;;1.40;0.55;;;17.70;1.40;;;18.72;100.00;95282.08;647151;216;31472;-75
2022/07/01 00:52:04;;;;;;;1.37;0.60;;;17.60;1.40;;;18.68;100.00;95286.16;645847;216;31459;-74
2022/07/01 00:57:20;;;;;;;0.65;0.55;;;17.50;1.40;;;18.50;100.00;95301.95;618629;225;32157;-75
2022/07/01 01:00:02;;;;;;;0.80;0.50;;;17.50;1.40;;;18.48;100.00;95298.17;647489;212;31471;-74
2022/07/01 01:02:43;;;;;;;0.50;0.40;;;17.40;1.40;;;18.47;100.00;95305.37;647621;216;31517;-74
2022/07/01 01:05:28;;;;;;;1.20;0.40;;;17.40;1.40;;;18.50;100.00;95302.78;647099;216;31594;-74
2022/07/01 01:08:10;;;;;;;2.17;0.60;;;17.40;1.40;;;18.29;100.00;95310.47;646238;216;31597;-75
2022/07/01 01:10:53;;;;;;;2.80;0.40;;;17.30;1.40;;;18.26;100.00;95312.70;645720;216;31565;-76
2022/07/01 01:13:34;;;;;;;0.80;0.50;;;17.30;1.40;;;18.24;100.00;95316.41;646289;216;31672;-75
2022/07/01 01:16:18;;;;;;;0.47;0.30;;;17.30;1.40;;;18.14;100.00;95314.40;647321;212;31448;-76
2022/07/01 01:18:59;;;;;;;1.12;0.40;;;17.20;1.40;;;18.17;100.00;95309.58;647090;212;31473;-75
2022/07/01 01:21:41;;;;;;;0.60;0.40;;;17.20;1.40;;;18.06;100.00;95306.82;647445;216;31481;-75
2022/07/01 01:24:22;;;;;;;1.20;0.50;;;17.10;1.40;;;18.05;100.00;95312.91;645741;216;31478;-75
2022/07/01 01:27:05;;;;;;;0.50;0.30;;;17.00;1.40;;;17.98;100.00;95305.55;645539;212;31475;-75
2022/07/01 01:29:47;;;;;;;0.40;0.20;;;17.00;1.40;;;17.87;100.00;95302.99;647345;216;31554;-75
2022/07/01 01:32:32;;;;;;;1.12;0.30;;;16.90;1.40;;;17.96;100.00;95301.36;647051;216;31541;-77
2022/07/01 01:35:51;;;;;;;0.40;0.30;;;16.90;1.40;;;17.82;100.00;95288.59;647079;216;31478;-75
2022/07/01 01:38:36;;;;;;;0.60;0.30;;;16.80;1.40;;;17.73;100.00;95289.91;646598;212;31698;-75
2022/07/01 01:41:18;;;;;;;2.45;0.70;;;16.70;1.40;;;17.65;100.00;95284.53;618596;222;31733;-75
2022/07/01 01:44:02;;;;;;;0.50;0.30;;;16.70;1.40;;;17.58;100.00;95274.40;617814;226;31951;-75
2022/07/01 01:46:44;;;;;;;0.70;0.30;;;16.60;1.40;;;17.51;100.00;95267.64;647564;216;31475;-75
2022/07/01 01:49:26;;;;;;;0.50;0.30;;;16.50;1.40;;;17.37;100.00;95268.86;646412;216;31994;-75
2022/07/01 01:52:08;;;;;;;0.40;0.30;;;16.40;1.40;;;17.35;100.00;95278.31;648013;216;31516;-76
2022/07/01 01:57:24;;;;;;;0.60;0.40;;;16.50;1.40;;;17.45;100.00;95269.04;646692;216;31630;-75
2022/07/01 02:00:07;;;;;;;0.40;0.40;;;16.50;1.40;;;17.43;100.00;95270.97;647264;216;31554;-75
2022/07/01 02:02:48;;;;;;;0.70;0.50;;;16.50;1.40;;;17.48;100.00;95279.33;647291;212;31465;-75
2022/07/01 02:05:35;;;;;;;0.60;0.40;;;16.60;1.40;;;17.51;100.00;95284.75;647096;216;31483;-75
2022/07/01 02:08:14;;;;;;;0.70;0.40;;;16.60;1.40;;;17.50;100.00;95292.60;647472;216;31534;-75
2022/07/01 02:10:56;;;;;;;0.40;0.30;;;16.60;1.40;;;17.48;100.00;95290.83;646094;216;31612;-75
2022/07/01 02:13:38;;;;;;;0.70;0.40;;;16.60;1.40;;;17.50;100.00;95291.28;646143;216;31493;-75
2022/07/01 02:16:23;;;;;;;0.60;0.50;;;16.60;1.40;;;17.50;100.00;95294.98;647566;212;31501;-75
2022/07/01 02:19:04;;;;;;;0.40;0.40;;;16.60;1.40;;;17.49;100.00;95297.13;647348;216;31487;-75
2022/07/01 02:21:46;;;;;;;1.20;0.60;;;16.60;1.40;;;17.55;100.00;95300.92;646967;212;31468;-75
2022/07/01 02:24:28;;;;;;;0.50;0.30;;;16.50;1.40;;;17.49;100.00;95303.20;647147;216;31737;-75
2022/07/01 02:27:09;;;;;;;0.70;0.50;;;16.50;1.40;;;17.49;100.00;95310.32;646042;216;31456;-75
2022/07/01 02:29:51;;;;;;;0.62;0.50;;;16.50;1.40;;;17.43;100.00;95315.63;645780;216;31671;-74
2022/07/01 02:32:33;;;;;;;0.43;0.30;;;16.50;1.40;;;17.39;100.00;95313.34;646621;216;31810;-74
2022/07/01 02:35:51;;;;;;;0.70;0.40;;;16.50;1.40;;;17.42;100.00;95312.78;646998;216;31478;-74
2022/07/01 02:38:33;;;;;;;0.50;0.40;;;16.40;1.40;;;17.41;100.00;95312.37;646394;216;31561;-74
2022/07/01 02:43:52;;;;;;;0.40;0.27;;;16.50;1.40;;;17.52;100.00;95324.97;619828;225;31799;-75
2022/07/01 02:46:34;;;;;;;0.40;0.20;;;16.50;1.40;;;17.58;100.00;95323.75;646311;216;31476;-75
2022/07/01 02:49:16;;;;;;;0.60;0.40;;;16.50;1.40;;;17.56;100.00;95328.19;646217;216;31893;-75
2022/07/01 02:51:57;;;;;;;0.40;0.35;;;16.50;1.40;;;17.51;100.00;95332.70;619134;226;31839;-76
2022/07/01 02:54:39;;;;;;;0.50;0.30;;;16.50;1.40;;;17.54;100.00;95332.17;646309;216;31733;-76
2022/07/01 02:57:23;;;;;;;0.47;0.30;;;16.50;1.40;;;17.50;100.00;95328.50;646940;216;31539;-75
2022/07/01 03:00:06;;;;;;;0.40;0.30;;;16.50;1.40;;;17.48;100.00;95324.01;618479;226;31947;-75
2022/07/01 03:02:48;;;;;;;2.22;0.45;;;16.50;1.40;;;17.43;100.00;95325.57;647343;216;32005;-75
2022/07/01 03:05:30;;;;;;;1.10;0.43;;;16.50;1.40;;;17.54;100.00;95324.44;646170;212;31489;-75
2022/07/01 03:08:11;;;;;;;0.60;0.40;;;16.50;1.40;;;17.48;100.00;95325.70;645748;216;31471;-74
2022/07/01 03:10:53;;;;;;;0.60;0.40;;;16.50;1.40;;;17.47;100.00;95328.91;647428;212;32104;-75
2022/07/01 03:13:35;;;;;;;0.40;0.30;;;16.50;1.40;;;17.47;100.00;95337.42;646393;216;31475;-74
2022/07/01 03:16:17;;;;;;;0.60;0.35;;;16.50;1.40;;;17.46;100.00;95339.48;645560;216;31841;-75
2022/07/01 03:18:58;;;;;;;0.60;0.40;;;16.50;1.40;;;17.50;100.00;95342.11;647716;212;31487;-75
2022/07/01 03:21:40;;;;;;;0.55;0.40;;;16.50;1.40;;;17.49;100.00;95349.80;646667;216;31494;-76
2022/07/01 03:24:25;;;;;;;0.80;0.50;;;16.50;1.40;;;17.51;100.00;95350.17;619017;226;32314;-76
2022/07/01 03:27:07;;;;;;;0.40;0.30;;;16.50;1.40;;;17.50;100.00;95349.52;646987;216;31529;-76
2022/07/01 03:29:48;;;;;;;0.40;0.30;;;16.50;1.40;;;17.61;100.00;95343.83;646077;216;31864;-75
2022/07/01 03:32:30;;;;;;;0.57;0.32;;;16.50;1.40;;;17.68;100.00;95344.19;619524;226;31890;-75
2022/07/01 03:35:51;;;;;;;0.85;0.50;;;16.50;1.40;;;17.70;100.00;95340.16;646527;216;31467;-75
2022/07/01 03:38:33;;;;;;;0.60;0.40;;;16.50;1.40;;;17.70;100.00;95336.67;647232;212;31488;-76
2022/07/01 03:41:15;;;;;;;0.57;0.47;;;16.50;1.40;;;17.78;100.00;95331.17;647678;216;32049;-75
2022/07/01 03:43:57;;;;;;;0.40;0.30;;;16.50;1.40;;;17.87;100.00;95336.36;647376;216;31619;-75
2022/07/01 03:46:41;;;;;;;0.60;0.40;;;16.60;1.40;;;17.82;100.00;95341.34;646142;212;31575;-76
2022/07/01 03:49:23;;;;;;;0.50;0.40;;;16.60;1.40;;;17.77;100.00;95344.17;647057;216;32057;-77
2022/07/01 03:52:08;;;;;;;0.60;0.60;;;16.60;1.40;;;17.85;100.00;95351.80;618290;222;31847;-75
2022/07/01 03:54:50;;;;;;;0.50;0.30;;;16.60;1.40;;;17.89;100.00;95353.03;646801;216;31536;-75
2022/07/01 03:57:31;;;;;;;0.60;0.50;;;16.60;1.40;;;17.88;100.00;95349.94;646674;216;31480;-75
2022/07/01 04:00:13;;;;;;;0.60;0.60;;;16.60;1.40;;;17.95;100.00;95347.40;620108;226;31855;-76
2022/07/01 04:02:55;;;;;;;0.50;0.30;;;16.60;1.40;;;18.03;100.00;95351.57;619573;222;31814;-76
2022/07/01 04:05:37;;;;;;;0.68;0.40;;;16.60;1.40;;;18.02;100.00;95348.84;618716;226;31853;-76
2022/07/01 04:08:19;;;;;;;1.00;0.40;;;16.70;1.40;;;18.02;100.00;95357.00;646119;216;31777;-76
2022/07/01 04:11:00;;;;;;;0.50;0.40;;;16.70;1.40;;;17.86;100.00;95354.83;646647;216;32040;-75
2022/07/01 04:13:49;;;;;;;0.60;0.50;;;16.60;1.40;;;17.81;100.00;95345.17;647376;216;31543;-76
2022/07/01 04:16:25;;;;;;;1.30;0.60;;;16.60;1.40;;;17.80;100.00;95339.24;644930;216;31543;-75
2022/07/01 04:19:05;;;;;;;0.50;0.50;;;16.60;1.40;;;17.90;100.00;95340.19;647132;216;31483;-75
2022/07/01 04:24:37;;;;;;;0.40;0.30;;;16.70;1.40;;;18.01;100.00;95334.56;619576;226;34613;-77
2022/07/01 04:27:19;;;;;;;1.00;0.40;;;16.70;1.40;;;18.26;100.00;95313.60;647353;216;31597;-75
2022/07/01 04:30:02;;;;;;;0.70;0.60;;;16.80;1.40;;;18.41;100.00;95301.53;646916;216;31470;-75
2022/07/01 04:32:43;;;;;;;0.45;0.32;;;16.80;1.40;;;18.25;100.00;95311.42;645728;216;42291;-75
2022/07/01 04:35:54;;;;;;;1.20;0.60;;;16.80;1.40;;;18.19;100.00;95319.83;646413;216;31512;-75
2022/07/01 04:38:36;;;;;;;0.70;0.30;;;16.80;1.40;;;18.16;100.00;95318.59;646054;212;31510;-75
2022/07/01 04:44:05;;;;;;;0.40;0.30;;;16.90;1.40;;;18.25;100.00;95318.46;646798;216;31467;-76
2022/07/01 04:46:46;;;;;;;0.80;0.60;;;16.90;1.40;;;18.39;100.00;95312.41;646300;212;31688;-75
2022/07/01 04:49:28;;;;;;;0.70;0.50;;;17.00;1.40;;;18.38;100.00;95311.08;645897;216;31652;-75
2022/07/01 04:52:10;;;;;;;0.80;0.50;;;17.00;1.40;;;18.61;100.00;95308.39;647615;212;31803;-75
2022/07/01 04:54:54;;;;;;;0.60;0.40;;;17.10;1.40;;;18.90;100.00;95307.11;645730;216;31491;-75
2022/07/01 04:57:39;;;;;;;0.90;0.50;;;17.30;1.40;;;19.04;100.00;95300.91;646902;216;31940;-74
2022/07/01 05:00:27;;;;;;;0.55;0.30;;;17.30;1.40;;;19.09;100.00;95306.20;618629;226;32093;-76
2022/07/01 05:03:13;;;;;;;0.98;0.60;;;17.40;1.40;;;18.94;100.00;95315.01;646247;216;31476;-74
2022/07/01 05:05:55;;;;;;;0.50;0.40;;;17.40;1.40;;;18.96;100.00;95324.16;647159;216;31468;-74
2022/07/01 05:08:37;;;;;;;0.82;0.50;;;17.40;1.40;;;18.90;100.00;95317.95;646826;216;31465;-74
2022/07/01 05:11:18;;;;;;;0.70;0.40;;;17.40;1.40;;;19.03;100.00;95305.57;645856;212;31488;-74
2022/07/01 05:14:06;;;;;;;1.00;0.40;;;17.30;1.40;;;18.72;100.00;95304.32;648526;215;31473;-74
2022/07/01 05:16:47;;;;;;;0.70;0.50;;;17.30;1.40;;;18.81;100.00;95321.23;645957;216;31484;-75
2022/07/01 05:25:02;;;;;;;0.70;0.40;;;17.40;1.40;;;18.83;100.00;95347.51;620144;226;31944;-75
2022/07/01 05:30:30;;;;;;;2.40;0.68;;;17.20;1.40;;;18.61;100.00;95339.91;646605;216;31497;-74
2022/07/01 05:35:54;;;;;;;0.50;0.40;;;17.20;1.40;;;18.63;100.00;95348.01;645266;216;31463;-74
2022/07/01 05:38:36;;;;;;;0.50;0.50;;;17.20;1.40;;;18.69;100.00;95369.88;646262;216;31653;-74
2022/07/01 05:43:00;;;;;;;0.80;0.40;;;17.40;1.40;;;18.81;100.00;95387.08;619295;226;42671;-74
2022/07/01 05:45:44;;;;;;;0.60;0.50;;;17.50;1.40;;;18.89;100.00;95389.78;646745;216;32087;-74
2022/07/01 05:48:26;;;;;;;0.50;0.40;;;17.40;1.40;;;18.86;100.00;95396.22;646540;216;31459;-74
2022/07/01 05:51:08;;;;;;;2.00;0.50;;;17.50;1.40;;;18.73;100.00;95404.65;646290;212;31524;-74
2022/07/01 05:53:56;;;;;;;1.30;0.70;;;17.50;1.40;;;18.76;100.00;95405.88;647266;216;32214;-75
2022/07/01 05:56:43;;;;;;;1.00;0.60;;;17.50;1.40;;;18.68;100.00;95401.69;646351;216;31633;-74
2022/07/01 05:59:31;;;;;;;0.90;0.40;;;17.50;1.40;;;18.85;100.00;95392.80;645842;216;31501;-73
2022/07/01 06:02:13;;;;;;;0.60;0.60;;;17.70;1.40;;;19.10;100.00;95381.48;646467;216;31470;-74
2022/07/01 06:04:55;;;;;;;1.20;0.57;;;18.00;1.40;;;19.30;100.00;95391.94;648015;212;31502;-73
2022/07/01 06:07:38;;;;;;;0.80;0.60;;;18.10;1.40;;;19.26;100.00;95389.67;647294;212;31525;-73
2022/07/01 06:10:18;;;;;;;1.10;0.50;;;18.00;1.40;;;19.56;100.00;95396.87;646214;212;31721;-73
2022/07/01 06:13:00;;;;;;;1.15;0.60;;;18.10;1.40;;;19.40;100.00;95413.01;646382;212;31503;-73
2022/07/01 06:15:42;;;;;;;0.88;0.73;;;18.00;1.40;;;19.24;100.00;95422.02;647752;212;32093;-73
2022/07/01 06:18:23;;;;;;;1.00;0.70;;;17.90;1.40;;;19.06;100.00;95428.86;645995;216;32255;-73
2022/07/01 06:21:05;;;;;;;0.82;0.60;;;17.70;1.40;;;19.11;100.00;95427.91;617838;222;33759;-73
2022/07/01 06:23:47;;;;;;;0.70;0.50;;;17.80;1.40;;;19.27;100.00;95435.04;647013;213;31568;-73
2022/07/01 06:26:28;;;;;;;1.05;0.50;;;18.00;1.40;;;19.72;100.00;95436.87;619784;222;31906;-73
2022/07/01 06:31:47;;;;;;;0.80;0.77;;;18.50;1.40;;;19.71;100.00;95443.52;647586;216;31462;-74
2022/07/01 06:35:54;;;;;;;0.53;0.40;;;18.30;1.40;;;19.71;100.00;95453.46;631842;221;31647;-74
2022/07/01 06:38:36;;;;;;;0.65;0.60;;;18.30;1.40;;;19.73;100.00;95454.90;640417;214;31624;-74
2022/07/01 06:44:05;;;;;;;1.70;0.60;;;18.50;1.40;;;20.01;100.00;95444.81;646811;216;32050;-74
2022/07/01 06:46:53;;;;;;;0.62;0.60;;;18.80;1.40;;;20.30;100.00;95451.98;646401;216;31483;-75
2022/07/01 06:49:41;;;;;;;1.00;0.65;;;18.90;1.40;;;20.22;100.00;95451.30;620022;226;31814;-74
2022/07/01 06:52:28;;;;;;;0.80;0.50;;;18.70;1.40;;;20.54;100.00;95443.91;644456;216;31843;-75
2022/07/01 06:55:16;;;;;;;0.63;0.60;;;19.00;1.40;;;20.30;100.00;95445.91;646470;212;31485;-75
2022/07/01 06:57:58;;;;;;;0.62;0.40;;;18.80;1.40;;;19.94;100.00;95451.50;646484;216;31499;-74
2022/07/01 07:00:41;;;;;;;0.80;0.80;;;18.20;1.40;;;18.70;100.00;95460.27;631034;221;31697;-75
2022/07/01 07:03:23;;;;;;;1.40;1.10;;;17.00;1.40;;;18.25;100.00;95463.80;647844;212;31598;-75
2022/07/01 07:06:11;;;;;;;0.90;0.70;;;16.70;1.40;;;18.30;100.00;95467.75;645922;216;42098;-74
2022/07/01 07:08:52;;;;;;;0.88;0.88;;;16.80;1.40;;;18.22;100.00;95463.09;646581;216;31489;-74
2022/07/01 07:11:34;;;;;;;0.80;0.60;;;16.80;1.40;;;17.97;100.00;95467.45;646299;212;31913;-74
2022/07/01 07:14:18;;;;;;;1.30;0.50;;;16.40;1.40;;;17.48;100.00;95479.83;646419;216;31520;-76
2022/07/01 07:17:00;;;;;;;0.50;0.50;;;16.10;1.40;;;17.51;100.00;95480.69;618979;222;31906;-75
2022/07/01 07:22:18;;;;;;;1.52;0.70;;;15.90;1.40;;;17.09;100.00;95494.81;646179;216;31471;-74
2022/07/01 07:25:03;;;;;;;0.67;0.57;;;15.80;1.40;;;16.88;100.00;95493.64;645653;216;31469;-74
2022/07/01 07:27:46;;;;;;;0.62;0.55;;;15.70;1.40;;;16.78;100.00;95482.55;646533;216;31487;-75
2022/07/01 07:30:28;;;;;;;1.20;0.70;;;15.70;1.40;;;16.98;100.00;95477.40;646570;216;31541;-76
2022/07/01 07:35:51;;;;;;;2.50;0.80;;;15.40;1.40;;;16.60;100.00;95470.56;647567;216;31967;-75
2022/07/01 07:38:39;;;;;;;0.80;0.73;;;15.30;1.40;;;16.20;100.00;95468.11;647555;216;31601;-75
2022/07/01 07:41:26;;;;;;;1.60;0.98;;;15.10;1.40;;;16.03;100.00;95483.24;646843;216;31742;-73
2022/07/01 07:44:08;;;;;;;1.02;0.90;;;14.90;1.40;;;15.88;100.00;95495.10;646496;216;31488;-73
2022/07/01 07:46:50;;;;;;;1.10;0.70;;;14.80;1.40;;;15.78;100.00;95504.51;619004;226;31841;-73
2022/07/01 07:49:32;;;;;;;0.40;0.32;;;14.80;1.40;;;15.40;100.00;95517.28;619405;226;32161;-73
2022/07/01 07:52:13;;;;;;;0.50;0.30;;;14.40;1.40;;;14.87;100.00;95524.17;646789;216;31484;-73
2022/07/01 07:54:55;;;;;;;0.50;0.30;;;14.00;1.40;;;14.58;100.00;95534.87;647008;216;31483;-73
2022/07/01 07:57:37;;;;;;;0.60;0.30;;;13.80;1.40;;;14.49;100.00;95547.58;645407;216;31494;-73
2022/07/01 08:00:18;;;;;;;0.40;0.30;;;13.70;1.40;;;14.36;100.00;95552.59;646886;212;31537;-73
2022/07/01 08:03:01;;;;;;;0.40;0.30;;;13.50;1.40;;;14.08;100.00;95562.83;646490;216;32203;-74
2022/07/01 08:08:20;;;;;;;0.50;0.40;;;13.30;1.40;;;14.02;100.00;95604.47;646277;216;31502;-74
2022/07/01 08:11:01;;;;;;;1.20;0.30;;;13.30;1.40;;;13.99;100.00;95600.08;646353;212;32096;-74
2022/07/01 08:13:43;;;;;;;0.40;0.30;;;13.20;1.40;;;13.89;100.00;95605.75;646467;216;31575;-73
2022/07/01 08:16:25;;;;;;;0.50;0.50;;;13.10;1.40;;;13.72;100.00;95614.27;646416;216;31503;-73
2022/07/01 08:19:07;;;;;;;0.40;0.30;;;13.00;1.40;;;13.84;100.00;95617.95;647084;216;42100;-74
2022/07/01 08:21:48;;;;;;;0.93;0.30;;;13.10;1.40;;;13.92;100.00;95635.95;647857;216;41854;-73
2022/07/01 08:24:33;;;;;;;0.50;0.40;;;13.20;1.40;;;13.88;100.00;95635.81;646011;216;42485;-73
2022/07/01 08:27:15;;;;;;;0.50;0.40;;;13.10;1.40;;;13.85;100.00;95639.11;645237;216;42325;-73
2022/07/01 08:30:00;;;;;;;0.88;0.88;;;13.10;1.40;;;13.84;100.00;95644.55;647043;216;31869;-73
2022/07/01 08:32:41;;;;;;;1.30;0.50;;;13.10;1.40;;;13.93;100.00;95644.36;646571;216;41936;-73
2022/07/01 08:35:52;;;;;;;0.40;0.30;;;13.20;1.40;;;13.91;100.00;95651.75;620264;222;31841;-73
2022/07/01 08:38:34;;;;;;;0.40;0.30;;;13.10;1.40;;;13.91;100.00;95649.43;645830;216;42497;-73
2022/07/01 08:41:15;;;;;;;0.60;0.50;;;13.10;1.40;;;13.98;100.00;95654.76;646809;216;42093;-74
2022/07/01 08:44:03;;;;;;;0.50;0.50;;;13.20;1.40;;;13.97;100.00;95653.48;645602;212;39961;-75
2022/07/01 08:46:47;;;;;;;0.50;0.45;;;13.10;1.40;;;13.86;100.00;95649.27;646076;216;39542;-74
2022/07/01 08:49:29;;;;;;;0.60;0.50;;;13.00;1.40;;;13.94;100.00;95643.14;646922;216;31495;-74
2022/07/01 08:52:10;;;;;;;0.50;0.40;;;13.10;1.40;;;14.04;100.00;95639.75;645353;216;42275;-74
2022/07/01 08:54:52;;;;;;;0.40;0.20;;;13.20;1.40;;;14.10;100.00;95641.66;646796;216;39613;-74
2022/07/01 08:57:34;;;;;;;0.50;0.40;;;13.20;1.40;;;13.91;100.00;95647.38;645628;216;42207;-74
2022/07/01 09:00:16;;;;;;;0.50;0.30;;;13.10;1.40;;;13.96;100.00;95645.88;646528;216;32044;-74
2022/07/01 09:03:00;;;;;;;0.62;0.50;;;13.10;1.40;;;13.87;100.00;95638.39;646663;216;43306;-74
2022/07/01 09:05:49;;;;;;;0.40;0.30;;;13.00;1.40;;;14.16;100.00;95636.22;646911;212;42028;-76
2022/07/01 09:08:33;;;;;;;0.40;0.30;;;13.10;1.40;;;14.12;100.00;95643.94;645876;212;42559;-74
2022/07/01 09:11:20;;;;;;;0.40;0.30;;;13.10;1.40;;;14.08;100.00;95645.07;646280;216;42821;-77
2022/07/01 09:14:10;;;;;;;0.40;0.30;;;13.20;1.40;;;14.11;100.00;95647.19;618078;226;43150;-74
2022/07/01 09:16:55;;;;;;;0.40;0.40;;;13.20;1.40;;;14.16;100.00;95651.20;648003;216;31471;-74
2022/07/01 09:19:36;;;;;;;0.70;0.40;;;13.10;1.40;;;14.11;100.00;95644.77;647676;216;42578;-74
2022/07/01 09:22:18;;;;;;;0.40;0.30;;;13.20;1.40;;;14.25;100.00;95639.73;647699;216;42215;-74
2022/07/01 09:25:00;;;;;;;0.40;0.30;;;13.30;1.40;;;14.20;100.00;95642.20;647471;216;42185;-74
2022/07/01 09:27:42;;;;;;;0.90;0.60;;;13.30;1.40;;;14.20;100.00;95641.37;646362;216;31515;-75
2022/07/01 09:30:23;;;;;;;0.60;0.30;;;13.30;1.40;;;14.50;100.00;95639.83;645800;216;31636;-74
2022/07/01 09:35:53;;;;;;;0.47;0.45;;;13.50;1.40;;;14.58;100.00;95639.20;646336;216;31872;-74
2022/07/01 09:38:36;;;;;;;0.40;0.30;;;13.40;1.40;;;14.53;100.00;95646.61;645577;216;31480;-74
2022/07/01 09:41:17;;;;;;;0.40;0.40;;;13.40;1.40;;;14.60;100.00;95647.10;646577;216;31497;-73
2022/07/01 09:43:58;;;;;;;0.60;0.32;;;13.40;1.40;;;14.57;100.00;95649.66;619396;226;31808;-74
2022/07/01 09:46:40;;;;;;;0.50;0.50;;;13.50;1.40;;;14.66;100.00;95648.90;641681;217;31561;-74
2022/07/01 09:49:21;;;;;;;0.40;0.30;;;13.60;1.40;;;14.70;100.00;95652.44;646549;216;31749;-76
2022/07/01 09:52:05;;;;;;;0.40;0.30;;;13.50;1.40;;;14.57;100.00;95657.19;619296;225;31809;-75
2022/07/01 09:54:48;;;;;;;0.50;0.50;;;13.40;1.40;;;14.71;100.00;95662.53;647752;216;31806;-75
2022/07/01 09:57:30;;;;;;;0.40;0.40;;;13.60;1.40;;;14.79;100.00;95659.84;632104;221;32238;-76
2022/07/01 10:00:17;;;;;;;0.40;0.40;;;13.70;1.40;;;14.78;100.00;95670.15;645524;216;32041;-73
2022/07/01 10:02:59;;;;;;;0.40;0.30;;;13.60;1.40;;;14.78;100.00;95671.92;647408;216;31644;-74
2022/07/01 10:05:49;;;;;;;0.62;0.45;;;13.60;1.40;;;14.85;100.00;95675.08;642875;216;31467;-76
2022/07/01 10:08:46;;;;;;;;;;;13.60;1.40;;;14.88;100.00;95680.03;652420;216;25179;-74
2022/07/01 10:11:47;;;;;;;;;;;13.70;1.40;;;14.82;100.00;95685.02;653550;216;24845;-74
2022/07/01 10:14:32;;;;;;;;;;;13.70;1.40;;;14.87;100.00;95685.34;653266;216;24835;-74
2022/07/01 10:17:29;;;;;;;;;;;13.70;1.40;;;14.90;100.00;95688.75;652012;216;25379;-74
2022/07/01 10:20:17;;;;;;;;;;;13.70;1.40;;;14.67;100.00;95692.76;653951;216;24942;-75
2022/07/01 10:23:03;;;;;;;;;;;13.70;1.40;;;14.82;100.00;95691.66;652540;216;24821;-73
2022/07/01 10:25:45;;;;;;;;;;;13.90;1.40;;;14.96;100.00;95701.31;653902;216;25067;-74
2022/07/01 10:28:30;;;;;;;;;;;13.90;1.40;;;15.12;100.00;95695.91;652686;212;25251;-74
2022/07/01 10:31:15;;;;;;;;;;;14.20;1.40;;;14.92;100.00;95701.69;652676;212;25260;-73
2022/07/01 10:35:50;;;;;;;;;;;14.20;1.40;;;14.94;100.00;95709.19;653224;216;24970;-73
2022/07/01 10:38:32;;;;;;;;;;;14.00;1.40;;;15.01;100.00;95706.12;652221;216;24809;-74
2022/07/01 10:41:13;;;;;;;;;;;14.10;1.40;;;14.86;100.00;95714.12;653829;216;25324;-74
2022/07/01 10:44:03;;;;;;;;;;;14.10;1.40;;;14.75;100.00;95715.92;653652;216;25314;-76
2022/07/01 10:46:56;;;;;;;;;;;14.10;1.40;;;14.93;100.00;95709.24;653919;216;25361;-74
2022/07/01 10:49:51;;;;;;;;;;;14.30;1.40;;;15.01;100.00;95701.13;647881;216;25189;-74
2022/07/01 10:52:33;;;;;;;;;;;14.30;1.40;;;15.10;100.00;95706.20;650216;216;24837;-74
2022/07/01 10:55:17;;;;;;;;;;;14.50;1.40;;;15.33;100.00;95711.14;649335;216;25309;-74
2022/07/01 10:57:57;;;;;;;;;;;14.70;1.40;;;15.43;100.00;95712.50;652501;216;24766;-74
2022/07/01 11:00:40;;;;;;;;;;;14.70;1.40;;;15.38;100.00;95714.02;654005;216;24824;-74
2022/07/01 11:03:22;;;;;;;;;;;14.60;1.40;;;15.43;100.00;95719.75;652702;216;25390;-74
2022/07/01 11:06:05;;;;;;;;;;;14.60;1.40;;;15.40;100.00;95723.35;653826;216;24802;-75
2022/07/01 11:08:52;;;;;;;;;;;14.60;1.40;;;15.04;100.00;95716.66;652101;212;24880;-74
2022/07/01 11:11:34;;;;;;;;;;;14.30;1.40;;;15.08;100.00;95722.34;654404;212;24727;-74
2022/07/01 11:14:15;;;;;;;;;;;14.30;1.40;;;15.11;100.00;95726.20;653941;216;24709;-74
2022/07/01 11:16:57;;;;;;;;;;;14.40;1.40;;;15.07;100.00;95727.89;654494;216;24806;-74
2022/07/01 11:19:38;;;;;;;;;;;14.30;1.40;;;15.02;100.00;95730.72;651779;216;25588;-74
2022/07/01 11:22:21;;;;;;;;;;;14.20;1.40;;;14.92;100.00;95733.77;649860;216;24739;-75
2022/07/01 11:25:09;;;;;;;;;;;14.10;1.40;;;14.80;100.00;95737.64;653441;212;25220;-75
2022/07/01 11:27:53;;;;;;;;;;;14.00;1.40;;;14.85;100.00;95724.87;653021;216;24753;-74
2022/07/01 11:30:34;;;;;;;;;;;14.20;1.40;;;14.87;100.00;95722.66;652688;216;24729;-74
2022/07/01 11:41:36;;;;;;;;;;;14.50;1.40;;;15.34;100.00;95732.59;653687;216;25375;-75
2022/07/01 11:44:23;;;;;;;;;;;14.60;1.40;;;15.55;100.00;95725.98;653754;216;25069;-74
2022/07/01 11:47:05;;;;;;;;;;;14.80;1.40;;;15.55;100.00;95727.04;653444;216;24789;-74
2022/07/01 11:49:46;;;;;;;;;;;14.70;1.40;;;15.80;100.00;95733.83;648245;216;24900;-74
2022/07/01 11:52:32;;;;;;;;;;;14.60;1.40;;;15.64;100.00;95741.56;605235;234;27883;-74
2022/07/01 11:55:17;;;;;;;;;;;14.50;1.40;;;15.24;100.00;95738.66;652488;216;24823;-74
2022/07/01 11:57:58;;;;;;;;;;;14.20;1.40;;;15.24;100.00;95728.33;653509;216;25501;-74
2022/07/01 12:00:39;;;;;;;;;;;14.30;1.40;;;15.39;100.00;95735.39;654403;216;24815;-74
2022/07/01 12:03:30;;;;;;;;;;;14.50;1.40;;;15.59;100.00;95733.16;648527;215;25094;-75
2022/07/01 12:06:16;;;;;;;;;;;14.60;1.40;;;15.75;100.00;95736.25;652084;216;25301;-74
2022/07/01 12:08:57;;;;;;;;;;;14.60;1.40;;;15.79;100.00;95738.12;652948;216;24928;-74
2022/07/01 12:11:45;;;;;;;;;;;14.70;1.40;;;15.69;100.00;95741.28;654348;216;24883;-75
2022/07/01 12:14:32;;;;;;;;;;;14.50;1.40;;;15.76;100.00;95739.50;652633;216;24746;-74
2022/07/01 12:17:19;;;;;;;;;;;14.60;1.40;;;15.65;100.00;95757.61;649449;216;24862;-76
2022/07/01 12:20:03;;;;;;;;;;;14.50;1.40;;;15.10;100.00;95771.66;652660;216;24829;-74
2022/07/01 12:22:50;;;;;;;;;;;14.20;1.40;;;15.12;100.00;95777.23;652920;212;24814;-76
2022/07/01 12:25:38;;;;;;;;;;;14.30;1.40;;;14.96;100.00;95785.80;653019;216;24826;-74
2022/07/01 12:28:28;;;;;;;;;;;14.20;1.40;;;14.81;100.00;95788.92;652340;216;24832;-74
2022/07/01 12:31:12;;;;;;;;;;;14.10;1.40;;;14.81;100.00;95787.03;653243;216;24807;-74
2022/07/01 12:35:51;;;;;;;0.65;0.30;;;14.10;1.40;;;14.84;100.00;95785.55;647701;216;31493;-74